Time,TemperatureF,DewpointF,PressureIn,WindDirection,WindDirectionDegrees,WindSpeedMPH,WindSpeedGustMPH,Humidity,HourlyPrecipIn,Conditions,Clouds,dailyrainin,SoftwareType,DateUTC
2013-03-06 00:12:00,47.7,45.5,29.57,SSW,202,9.4,-999.0,92,-99.99,,,0.01,Acu-Link.com,2013-03-06 08:12:00,
2013-03-06 00:27:00,47.5,45.3,29.57,NNW,337,11.4,-999.0,92,-99.99,,,0.02,Acu-Link.com,2013-03-06 08:27:00,
2013-03-06 00:43:00,47.5,47.0,29.58,ESE,112,7.3,-999.0,98,-99.99,,,0.02,Acu-Link.com,2013-03-06 08:43:00,
2013-03-06 00:58:00,47.5,47.0,29.59,North,0,4.7,-999.0,98,-99.99,,,0.03,Acu-Link.com,2013-03-06 08:58:00,
2013-03-06 01:23:00,47.5,47.2,29.59,SSW,202,8.3,-999.0,99,-99.99,,,0.09,Acu-Link.com,2013-03-06 09:23:00,
2013-03-06 01:38:00,48.4,48.1,29.58,SSE,157,1.7,-999.0,99,-99.99,,,0.11,Acu-Link.com,2013-03-06 09:38:00,
2013-03-06 01:53:00,48.9,48.6,29.59,SW,225,8.9,-999.0,99,-99.99,,,0.11,Acu-Link.com,2013-03-06 09:53:00,
2013-03-06 02:08:00,47.5,47.2,29.59,SSW,202,6.3,-999.0,99,-99.99,,,0.16,Acu-Link.com,2013-03-06 10:08:00,
2013-03-06 02:23:00,47.7,47.4,29.59,North,0,4.7,-999.0,99,-99.99,,,0.16,Acu-Link.com,2013-03-06 10:23:00,
2013-03-06 02:39:00,48.6,48.3,29.60,SSW,202,2.7,-999.0,99,-99.99,,,0.16,Acu-Link.com,2013-03-06 10:39:00,
2013-03-06 02:54:00,48.2,46.8,29.60,SSW,202,3.7,-999.0,95,-99.99,,,0.16,Acu-Link.com,2013-03-06 10:54:00,
2013-03-06 03:09:00,47.8,46.4,29.60,SW,225,6.8,-999.0,95,-99.99,,,0.16,Acu-Link.com,2013-03-06 11:09:00,
2013-03-06 03:24:00,48.2,46.6,29.60,North,0,8.9,-999.0,94,-99.99,,,0.16,Acu-Link.com,2013-03-06 11:24:00,
2013-03-06 03:39:00,48.2,46.6,29.62,SSW,202,5.8,-999.0,94,-99.99,,,0.16,Acu-Link.com,2013-03-06 11:39:00,
2013-03-06 03:54:00,48.2,46.6,29.62,North,0,8.3,-999.0,94,-99.99,,,0.16,Acu-Link.com,2013-03-06 11:54:00,
2013-03-06 04:09:00,47.7,45.8,29.64,SW,225,4.7,-999.0,93,-99.99,,,0.16,Acu-Link.com,2013-03-06 12:09:00,
2013-03-06 04:24:00,47.3,44.5,29.64,WSW,247,5.3,-999.0,90,-99.99,,,0.16,Acu-Link.com,2013-03-06 12:24:00,
2013-03-06 04:39:00,47.1,43.4,29.65,WSW,247,3.7,-999.0,87,-99.99,,,0.16,Acu-Link.com,2013-03-06 12:39:00,
2013-03-06 04:55:00,46.6,42.9,29.66,SW,225,4.7,-999.0,87,-99.99,,,0.16,Acu-Link.com,2013-03-06 12:55:00,
2013-03-06 05:10:00,46.4,42.4,29.66,SSE,157,7.8,-999.0,86,-99.99,,,0.16,Acu-Link.com,2013-03-06 13:10:00,
2013-03-06 05:25:00,46.2,42.2,29.66,North,0,4.2,-999.0,86,-99.99,,,0.16,Acu-Link.com,2013-03-06 13:25:00,
2013-03-06 05:40:00,46.0,42.1,29.66,SW,225,6.8,-999.0,86,-99.99,,,0.16,Acu-Link.com,2013-03-06 13:40:00,
2013-03-06 05:55:00,45.9,42.0,29.66,NNW,337,6.8,-999.0,86,-99.99,,,0.16,Acu-Link.com,2013-03-06 13:55:00,
2013-03-06 06:10:00,45.9,41.6,29.67,NNE,22,2.2,-999.0,85,-99.99,,,0.16,Acu-Link.com,2013-03-06 14:10:00,
2013-03-06 06:25:00,45.9,41.6,29.67,North,0,3.7,-999.0,85,-99.99,,,0.16,Acu-Link.com,2013-03-06 14:25:00,
2013-03-06 06:41:00,45.9,41.6,29.68,SSW,202,4.2,-999.0,85,-99.99,,,0.16,Acu-Link.com,2013-03-06 14:41:00,
2013-03-06 06:56:00,45.9,42.0,29.69,North,0,6.8,-999.0,86,-99.99,,,0.16,Acu-Link.com,2013-03-06 14:56:00,
2013-03-06 07:11:00,46.9,43.2,29.70,WSW,247,3.2,-999.0,87,-99.99,,,0.16,Acu-Link.com,2013-03-06 15:11:00,
2013-03-06 07:26:00,48.7,44.1,29.71,North,0,2.7,-999.0,84,-99.99,,,0.16,Acu-Link.com,2013-03-06 15:26:00,
2013-03-06 07:41:00,49.6,44.3,29.71,SW,225,4.2,-999.0,82,-99.99,,,0.16,Acu-Link.com,2013-03-06 15:41:00,
2013-03-06 07:56:00,50.2,43.9,29.72,SW,225,2.7,-999.0,79,-99.99,,,0.16,Acu-Link.com,2013-03-06 15:56:00,
2013-03-06 08:11:00,50.0,43.4,29.73,SSW,202,2.2,-999.0,78,-99.99,,,0.16,Acu-Link.com,2013-03-06 16:11:00,
2013-03-06 08:26:00,50.9,44.0,29.74,SW,225,5.8,-999.0,77,-99.99,,,0.16,Acu-Link.com,2013-03-06 16:26:00,
2013-03-06 08:41:00,51.1,43.8,29.75,SSW,202,6.8,-999.0,76,-99.99,,,0.16,Acu-Link.com,2013-03-06 16:41:00,
2013-03-06 08:57:00,52.2,44.5,29.76,NNW,337,4.2,-999.0,75,-99.99,,,0.16,Acu-Link.com,2013-03-06 16:57:00,
2013-03-06 09:12:00,53.1,43.6,29.76,NNW,337,2.7,-999.0,70,-99.99,,,0.16,Acu-Link.com,2013-03-06 17:12:00,
2013-03-06 09:27:00,52.3,42.4,29.77,NNW,337,4.2,-999.0,69,-99.99,,,0.16,Acu-Link.com,2013-03-06 17:27:00,
2013-03-06 09:42:00,52.5,42.6,29.77,NNW,337,4.2,-999.0,69,-99.99,,,0.16,Acu-Link.com,2013-03-06 17:42:00,
2013-03-06 09:57:00,52.7,42.4,29.78,NNW,337,2.2,-999.0,68,-99.99,,,0.16,Acu-Link.com,2013-03-06 17:57:00,
2013-03-06 10:12:00,52.5,41.9,29.78,North,0,4.7,-999.0,67,-99.99,,,0.16,Acu-Link.com,2013-03-06 18:12:00,
2013-03-06 10:28:00,52.7,42.1,29.79,SSW,202,4.7,-999.0,67,-99.99,,,0.16,Acu-Link.com,2013-03-06 18:28:00,
2013-03-06 10:43:00,53.1,41.2,29.79,North,0,4.2,-999.0,64,-99.99,,,0.16,Acu-Link.com,2013-03-06 18:43:00,
2013-03-06 10:58:00,52.5,41.5,29.79,North,0,2.7,-999.0,66,-99.99,,,0.16,Acu-Link.com,2013-03-06 18:58:00,
2013-03-06 11:13:00,52.7,40.5,29.80,North,0,7.3,-999.0,63,-99.99,,,0.16,Acu-Link.com,2013-03-06 19:13:00,
2013-03-06 11:28:00,52.3,40.1,29.80,North,0,1.7,-999.0,63,-99.99,,,0.16,Acu-Link.com,2013-03-06 19:28:00,
2013-03-06 11:43:00,52.3,40.9,29.80,North,0,2.2,-999.0,65,-99.99,,,0.16,Acu-Link.com,2013-03-06 19:43:00,
2013-03-06 11:58:00,52.9,41.5,29.80,North,0,2.2,-999.0,65,-99.99,,,0.16,Acu-Link.com,2013-03-06 19:58:00,
2013-03-06 12:13:00,53.4,40.7,29.80,North,0,4.2,-999.0,62,-99.99,,,0.16,Acu-Link.com,2013-03-06 20:13:00,
2013-03-06 12:28:00,53.6,41.3,29.80,North,0,3.2,-999.0,63,-99.99,,,0.16,Acu-Link.com,2013-03-06 20:28:00,
2013-03-06 12:44:00,53.1,41.2,29.79,North,0,2.2,-999.0,64,-99.99,,,0.16,Acu-Link.com,2013-03-06 20:44:00,
2013-03-06 12:59:00,52.7,41.3,29.80,North,0,3.7,-999.0,65,-99.99,,,0.16,Acu-Link.com,2013-03-06 20:59:00,
2013-03-06 13:14:00,54.5,42.6,29.80,North,0,2.2,-999.0,64,-99.99,,,0.16,Acu-Link.com,2013-03-06 21:14:00,
2013-03-06 13:29:00,54.1,41.4,29.79,North,0,2.7,-999.0,62,-99.99,,,0.16,Acu-Link.com,2013-03-06 21:29:00,
2013-03-06 13:44:00,54.0,41.3,29.79,North,0,2.2,-999.0,62,-99.99,,,0.16,Acu-Link.com,2013-03-06 21:44:00,
2013-03-06 13:59:00,54.0,39.6,29.79,SW,225,2.2,-999.0,58,-99.99,,,0.16,Acu-Link.com,2013-03-06 21:59:00,
2013-03-06 14:14:00,54.0,39.1,29.79,SW,225,1.7,-999.0,57,-99.99,,,0.16,Acu-Link.com,2013-03-06 22:14:00,
2013-03-06 14:29:00,53.4,39.4,29.79,North,0,5.3,-999.0,59,-99.99,,,0.16,Acu-Link.com,2013-03-06 22:29:00,
2013-03-06 14:44:00,53.2,38.8,29.77,North,0,2.7,-999.0,58,-99.99,,,0.16,Acu-Link.com,2013-03-06 22:44:00,
2013-03-06 15:00:00,54.3,38.9,29.79,North,0,4.7,-999.0,56,-99.99,,,0.16,Acu-Link.com,2013-03-06 23:00:00,
2013-03-06 15:15:00,53.2,38.8,29.78,NNW,337,2.7,-999.0,58,-99.99,,,0.16,Acu-Link.com,2013-03-06 23:15:00,
2013-03-06 15:30:00,53.1,39.6,29.79,NNW,337,2.2,-999.0,60,-99.99,,,0.16,Acu-Link.com,2013-03-06 23:30:00,
2013-03-06 15:45:00,52.7,40.1,29.78,NNW,337,1.1,-999.0,62,-99.99,,,0.16,Acu-Link.com,2013-03-06 23:45:00,
2013-03-06 16:00:00,53.1,40.8,29.78,NNW,337,2.7,-999.0,63,-99.99,,,0.16,Acu-Link.com,2013-03-07 00:00:00,
2013-03-06 16:15:00,52.7,40.1,29.78,NNW,337,5.3,-999.0,62,-99.99,,,0.16,Acu-Link.com,2013-03-07 00:15:00,
2013-03-06 16:30:00,52.5,40.3,29.78,SSW,202,1.1,-999.0,63,-99.99,,,0.16,Acu-Link.com,2013-03-07 00:30:00,
2013-03-06 16:45:00,52.0,40.2,29.78,SSW,202,1.1,-999.0,64,-99.99,,,0.16,Acu-Link.com,2013-03-07 00:45:00,
2013-03-06 17:00:00,51.4,39.2,29.77,SSW,202,3.7,-999.0,63,-99.99,,,0.16,Acu-Link.com,2013-03-07 01:00:00,
2013-03-06 17:15:00,50.7,39.0,29.77,SSW,202,1.7,-999.0,64,-99.99,,,0.16,Acu-Link.com,2013-03-07 01:15:00,
2013-03-06 17:31:00,50.7,39.8,29.76,SSW,202,1.7,-999.0,66,-99.99,,,0.16,Acu-Link.com,2013-03-07 01:31:00,
2013-03-06 17:46:00,50.2,40.8,29.76,SSW,202,1.1,-999.0,70,-99.99,,,0.16,Acu-Link.com,2013-03-07 01:46:00,
2013-03-06 18:01:00,49.6,40.2,29.76,SSW,202,1.1,-999.0,70,-99.99,,,0.16,Acu-Link.com,2013-03-07 02:01:00,
2013-03-06 18:16:00,49.1,39.7,29.76,SSW,202,1.7,-999.0,70,-99.99,,,0.16,Acu-Link.com,2013-03-07 02:16:00,
2013-03-06 18:31:00,48.4,40.5,29.76,SSW,202,0.0,-999.0,74,-99.99,,,0.16,Acu-Link.com,2013-03-07 02:31:00,
2013-03-06 18:46:00,48.2,41.0,29.75,SSW,202,1.1,-999.0,76,-99.99,,,0.16,Acu-Link.com,2013-03-07 02:46:00,
2013-03-06 19:02:00,47.7,40.8,29.76,SSW,202,0.0,-999.0,77,-99.99,,,0.16,Acu-Link.com,2013-03-07 03:02:00,
2013-03-06 19:17:00,47.1,40.6,29.76,SSW,202,1.7,-999.0,78,-99.99,,,0.16,Acu-Link.com,2013-03-07 03:17:00,
2013-03-06 19:32:00,46.8,40.6,29.75,SSW,202,1.1,-999.0,79,-99.99,,,0.16,Acu-Link.com,2013-03-07 03:32:00,
2013-03-06 19:47:00,46.4,40.2,29.75,SSW,202,0.0,-999.0,79,-99.99,,,0.16,Acu-Link.com,2013-03-07 03:47:00,
2013-03-06 20:02:00,46.4,40.6,29.75,SSW,202,0.0,-999.0,80,-99.99,,,0.16,Acu-Link.com,2013-03-07 04:02:00,
2013-03-06 20:17:00,45.9,40.4,29.75,SSW,202,0.0,-999.0,81,-99.99,,,0.16,Acu-Link.com,2013-03-07 04:17:00,
2013-03-06 20:32:00,45.9,40.7,29.75,SSW,202,1.1,-999.0,82,-99.99,,,0.16,Acu-Link.com,2013-03-07 04:32:00,
2013-03-06 20:47:00,45.9,41.3,29.75,SSW,202,1.1,-999.0,84,-99.99,,,0.16,Acu-Link.com,2013-03-07 04:47:00,
2013-03-06 21:18:00,46.0,41.7,29.74,SSW,202,2.2,-999.0,85,-99.99,,,0.16,Acu-Link.com,2013-03-07 05:18:00,
2013-03-06 21:33:00,46.0,41.7,29.74,SSW,202,3.2,-999.0,85,-99.99,,,0.16,Acu-Link.com,2013-03-07 05:33:00,
2013-03-06 21:48:00,45.7,41.5,29.74,SSW,202,0.0,-999.0,85,-99.99,,,0.16,Acu-Link.com,2013-03-07 05:48:00,
2013-03-06 22:03:00,44.8,40.3,29.74,SSW,202,0.0,-999.0,84,-99.99,,,0.16,Acu-Link.com,2013-03-07 06:03:00,
2013-03-06 22:18:00,44.4,39.9,29.74,SSW,202,0.0,-999.0,84,-99.99,,,0.16,Acu-Link.com,2013-03-07 06:18:00,
2013-03-06 22:33:00,43.7,39.2,29.74,SSW,202,0.0,-999.0,84,-99.99,,,0.16,Acu-Link.com,2013-03-07 06:33:00,
2013-03-06 22:48:00,43.2,38.4,29.73,SSW,202,0.0,-999.0,83,-99.99,,,0.16,Acu-Link.com,2013-03-07 06:48:00,
2013-03-06 23:04:00,42.4,37.6,29.73,SSW,202,0.0,-999.0,83,-99.99,,,0.16,Acu-Link.com,2013-03-07 07:04:00,
2013-03-06 23:19:00,42.3,37.8,29.73,SSW,202,0.0,-999.0,84,-99.99,,,0.16,Acu-Link.com,2013-03-07 07:19:00,
2013-03-06 23:34:00,41.9,37.4,29.73,SSW,202,0.0,-999.0,84,-99.99,,,0.16,Acu-Link.com,2013-03-07 07:34:00,
2013-03-06 23:49:00,41.7,37.8,29.72,SSW,202,0.0,-999.0,86,-99.99,,,0.16,Acu-Link.com,2013-03-07 07:49:00,